createdAt,value
2023-12-29T00:01:42.984Z,12.10
2023-12-29T00:04:11.967Z,12.00
2023-12-29T00:06:49.024Z,12.20
2023-12-29T00:09:22.728Z,13.00
2023-12-29T00:11:50.153Z,14.20
2023-12-29T00:14:17.953Z,11.00
2023-12-29T00:16:46.656Z,14.10
2023-12-29T00:19:14.496Z,13.50
2023-12-29T00:21:42.260Z,11.80
2023-12-29T00:24:10.961Z,11.50
2023-12-29T00:26:38.439Z,12.70
2023-12-29T00:29:05.857Z,12.80
2023-12-29T00:31:34.617Z,12.00
2023-12-29T00:34:02.781Z,14.00
2023-12-29T00:36:30.333Z,13.50
2023-12-29T00:38:59.079Z,16.20
2023-12-29T00:41:26.507Z,17.60
2023-12-29T00:43:53.978Z,13.90
2023-12-29T00:46:22.770Z,13.00
2023-12-29T00:48:50.346Z,13.00
2023-12-29T00:51:17.973Z,14.40
2023-12-29T00:53:47.060Z,14.40
2023-12-29T00:56:14.542Z,16.40
2023-12-29T00:58:42.017Z,15.30
2023-12-29T01:01:10.781Z,18.00
2023-12-29T01:03:38.296Z,17.10
2023-12-29T01:06:05.768Z,15.20
2023-12-29T01:08:34.484Z,11.10
2023-12-29T01:11:01.972Z,12.70
2023-12-29T01:13:29.502Z,12.10
2023-12-29T01:15:58.650Z,13.10
2023-12-29T01:18:26.207Z,13.70
2023-12-29T01:20:53.700Z,13.80
2023-12-29T01:23:22.391Z,18.50
2023-12-29T01:25:49.804Z,17.90
2023-12-29T01:28:17.278Z,15.10
2023-12-29T01:30:46.048Z,11.40
2023-12-29T01:33:13.651Z,13.00
2023-12-29T01:35:41.526Z,12.70
2023-12-29T01:38:10.089Z,12.90
2023-12-29T01:40:37.570Z,13.10
2023-12-29T01:43:05.064Z,17.40
2023-12-29T01:45:35.808Z,19.30
2023-12-29T01:48:09.269Z,15.10
2023-12-29T01:50:36.854Z,11.40
2023-12-29T01:53:04.310Z,11.90
2023-12-29T01:55:33.059Z,11.50
2023-12-29T01:58:01.139Z,12.60
2023-12-29T02:00:28.957Z,12.10
2023-12-29T02:02:57.792Z,16.70
2023-12-29T02:05:25.517Z,19.20
2023-12-29T02:07:53.215Z,17.10
2023-12-29T02:10:22.030Z,13.50
2023-12-29T02:12:49.656Z,11.00
2023-12-29T02:15:17.180Z,9.60
2023-12-29T02:17:45.889Z,10.30
2023-12-29T02:20:13.860Z,9.10
2023-12-29T02:22:41.512Z,8.90
2023-12-29T02:25:10.334Z,9.00
2023-12-29T02:27:37.905Z,14.70
2023-12-29T02:30:05.466Z,15.20
2023-12-29T02:32:34.389Z,11.10
2023-12-29T02:35:02.032Z,7.50
2023-12-29T02:37:29.799Z,8.20
2023-12-29T02:39:58.591Z,8.40
2023-12-29T02:42:26.066Z,8.10
2023-12-29T02:44:53.528Z,7.40
2023-12-29T02:47:22.360Z,7.80
2023-12-29T02:49:50.036Z,12.70
2023-12-29T02:52:17.582Z,11.10
2023-12-29T02:54:46.404Z,9.70
2023-12-29T02:57:14.001Z,6.40
2023-12-29T02:59:41.431Z,6.70
2023-12-29T03:02:10.072Z,7.70
2023-12-29T03:04:37.515Z,8.30
2023-12-29T03:07:05.209Z,9.00
2023-12-29T03:09:34.016Z,9.30
2023-12-29T03:12:01.519Z,14.70
2023-12-29T03:14:28.998Z,15.30
2023-12-29T03:16:57.764Z,13.30
2023-12-29T03:19:25.301Z,10.20
2023-12-29T03:21:52.808Z,9.60
2023-12-29T03:24:21.598Z,9.80
2023-12-29T03:26:49.414Z,10.90
2023-12-29T03:29:17.115Z,10.80
2023-12-29T03:31:46.149Z,20.20
2023-12-29T03:34:13.873Z,17.10
2023-12-29T03:36:41.541Z,15.30
2023-12-29T03:39:10.289Z,14.20
2023-12-29T03:41:37.768Z,11.20
2023-12-29T03:44:05.234Z,11.50
2023-12-29T03:46:34.318Z,11.30
2023-12-29T03:49:01.868Z,10.30
2023-12-29T03:51:29.615Z,10.70
2023-12-29T03:53:58.556Z,16.50
2023-12-29T03:56:26.066Z,17.60
2023-12-29T03:58:53.520Z,14.00
2023-12-29T04:01:22.364Z,12.20
2023-12-29T04:03:50.030Z,10.60
2023-12-29T04:06:17.493Z,10.80
2023-12-29T04:08:46.629Z,10.40
2023-12-29T04:11:14.062Z,10.60
2023-12-29T04:13:41.476Z,16.20
2023-12-29T04:16:10.338Z,14.10
2023-12-29T04:18:38.200Z,12.60
2023-12-29T04:21:05.854Z,9.80
2023-12-29T04:23:34.549Z,11.20
2023-12-29T04:26:01.971Z,10.40
2023-12-29T04:28:29.838Z,10.70
2023-12-29T04:30:58.672Z,10.50
2023-12-29T04:33:26.316Z,11.30
2023-12-29T04:35:53.760Z,14.50
2023-12-29T04:38:22.429Z,12.40
2023-12-29T04:40:49.831Z,10.40
2023-12-29T04:43:17.345Z,8.90
2023-12-29T04:45:46.136Z,9.70
2023-12-29T04:48:13.965Z,9.90
2023-12-29T04:50:41.482Z,10.10
2023-12-29T04:53:10.204Z,9.80
2023-12-29T04:55:37.761Z,10.00
2023-12-29T04:58:05.480Z,10.80
2023-12-29T05:00:34.429Z,10.70
2023-12-29T05:03:01.941Z,10.20
2023-12-29T05:05:29.621Z,8.50
2023-12-29T05:07:58.641Z,10.80
2023-12-29T05:10:26.624Z,10.60
2023-12-29T05:12:54.102Z,9.60
2023-12-29T05:15:22.896Z,10.10
2023-12-29T05:17:50.367Z,10.90
2023-12-29T05:20:17.826Z,13.00
2023-12-29T05:22:46.530Z,12.20
2023-12-29T05:25:14.010Z,12.20
2023-12-29T05:27:41.517Z,9.90
2023-12-29T05:30:10.696Z,11.10
2023-12-29T05:32:38.371Z,10.60
2023-12-29T05:35:08.173Z,10.90
2023-12-29T05:37:36.091Z,11.20
2023-12-29T05:40:03.698Z,11.40
2023-12-29T05:42:32.510Z,13.00
2023-12-29T05:44:59.932Z,13.20
2023-12-29T05:47:27.420Z,12.60
2023-12-29T05:49:56.603Z,10.10
2023-12-29T05:52:24.207Z,10.90
2023-12-29T05:54:53.943Z,11.40
2023-12-29T05:57:21.433Z,10.80
2023-12-29T05:59:48.888Z,10.20
2023-12-29T06:02:17.488Z,13.30
2023-12-29T06:04:44.909Z,13.80
2023-12-29T06:07:12.720Z,12.90
2023-12-29T06:09:41.461Z,10.10
2023-12-29T06:12:08.930Z,10.30
2023-12-29T06:14:36.687Z,9.90
2023-12-29T06:17:05.373Z,10.50
2023-12-29T06:19:32.913Z,10.60
2023-12-29T06:22:00.425Z,12.80
2023-12-29T06:24:29.182Z,12.90
2023-12-29T06:26:56.622Z,10.90
2023-12-29T06:29:24.055Z,8.50
2023-12-29T06:31:52.767Z,9.10
2023-12-29T06:34:20.330Z,9.50
2023-12-29T06:36:48.019Z,9.40
2023-12-29T06:39:16.751Z,10.60
2023-12-29T06:41:44.237Z,13.00
2023-12-29T06:44:11.945Z,13.70
2023-12-29T06:46:40.703Z,12.20
2023-12-29T06:49:08.272Z,9.90
2023-12-29T06:51:35.949Z,10.10
2023-12-29T06:54:04.720Z,10.50
2023-12-29T06:56:32.147Z,10.80
2023-12-29T06:58:59.914Z,9.50
2023-12-29T07:01:28.719Z,10.00
2023-12-29T07:03:56.306Z,15.50
2023-12-29T07:06:23.889Z,13.40
2023-12-29T07:08:52.711Z,11.30
2023-12-29T07:11:20.147Z,8.70
2023-12-29T07:13:47.639Z,9.10
2023-12-29T07:16:16.482Z,9.20
2023-12-29T07:21:27.784Z,10.40
2023-12-29T07:23:55.248Z,11.80
2023-12-29T07:26:22.679Z,11.60
2023-12-29T07:28:51.408Z,10.50
2023-12-29T07:31:19.057Z,9.50
2023-12-29T07:33:46.808Z,9.80
2023-12-29T07:36:16.873Z,9.50
2023-12-29T07:38:46.263Z,8.80
2023-12-29T07:41:14.964Z,9.20
2023-12-29T07:43:42.391Z,9.10
2023-12-29T07:46:09.869Z,9.80
2023-12-29T07:48:38.748Z,9.70
2023-12-29T07:51:06.379Z,9.50
2023-12-29T07:53:33.827Z,7.80
2023-12-29T07:56:02.577Z,8.30
2023-12-29T07:58:30.173Z,8.60
2023-12-29T08:00:58.022Z,8.60
2023-12-29T08:03:26.757Z,9.00
2023-12-29T08:05:54.248Z,8.90
2023-12-29T08:08:21.741Z,8.20
2023-12-29T08:10:50.449Z,9.50
2023-12-29T08:13:17.931Z,9.50
2023-12-29T08:15:45.471Z,7.70
2023-12-29T08:18:14.623Z,7.50
2023-12-29T08:20:42.149Z,7.50
2023-12-29T08:23:09.571Z,15.70
2023-12-29T08:25:38.346Z,10.50
2023-12-29T08:28:05.945Z,7.80
2023-12-29T08:30:33.396Z,8.80
2023-12-29T08:33:02.245Z,7.70
2023-12-29T08:35:29.730Z,7.90
2023-12-29T08:37:57.280Z,7.10
2023-12-29T08:40:26.621Z,11.30
2023-12-29T08:42:54.224Z,9.10
2023-12-29T08:45:21.677Z,11.50
2023-12-29T08:47:50.383Z,12.00
2023-12-29T08:50:17.832Z,10.70
2023-12-29T08:52:45.310Z,11.60
2023-12-29T08:55:14.060Z,12.00
2023-12-29T08:57:41.569Z,10.30
2023-12-29T09:00:09.115Z,12.80
2023-12-29T09:02:37.843Z,12.90
2023-12-29T09:05:05.355Z,18.60
2023-12-29T09:07:32.930Z,11.00
2023-12-29T09:10:01.676Z,15.30
2023-12-29T09:12:29.241Z,16.50
2023-12-29T09:14:56.766Z,17.60
2023-12-29T09:17:25.524Z,28.50
2023-12-29T09:20:00.094Z,32.50
2023-12-29T09:22:34.418Z,30.20
2023-12-29T09:25:02.039Z,18.60
2023-12-29T09:27:29.665Z,22.30
2023-12-29T09:29:58.512Z,16.30
2023-12-29T09:32:26.023Z,8.90
2023-12-29T09:34:53.532Z,9.20
2023-12-29T09:37:22.401Z,5.60
2023-12-29T09:39:50.186Z,7.30
2023-12-29T09:42:17.481Z,3.60
2023-12-29T09:44:46.371Z,3.90
2023-12-29T09:47:13.817Z,2.60
2023-12-29T09:49:41.493Z,2.60
2023-12-29T09:52:10.417Z,2.00
2023-12-29T09:54:38.008Z,1.90
2023-12-29T09:57:05.462Z,2.10
2023-12-29T09:59:34.153Z,2.10
2023-12-29T10:02:01.749Z,2.30
2023-12-29T10:04:29.522Z,2.00
2023-12-29T10:06:58.265Z,1.70
2023-12-29T10:09:25.762Z,1.70
2023-12-29T10:11:53.281Z,1.80
2023-12-29T10:14:21.995Z,1.70
2023-12-29T10:16:49.441Z,1.60
2023-12-29T10:19:16.987Z,1.80
2023-12-29T10:21:45.817Z,1.70
2023-12-29T10:24:13.639Z,2.20
2023-12-29T10:26:41.061Z,2.00
2023-12-29T10:29:09.800Z,1.90
2023-12-29T10:31:37.273Z,2.30
2023-12-29T10:34:04.981Z,2.30
2023-12-29T10:36:33.766Z,1.80
2023-12-29T10:39:01.199Z,2.10
2023-12-29T10:41:28.848Z,2.40
2023-12-29T10:43:57.533Z,2.20
2023-12-29T10:46:25.164Z,2.10
2023-12-29T10:48:52.751Z,1.90
2023-12-29T10:51:21.762Z,2.20
2023-12-29T10:53:49.265Z,2.50
2023-12-29T10:56:16.699Z,2.10
2023-12-29T10:58:45.421Z,2.10
2023-12-29T11:01:13.080Z,2.20
2023-12-29T11:03:40.977Z,1.90
2023-12-29T11:06:09.728Z,2.10
2023-12-29T11:08:37.332Z,2.00
2023-12-29T11:11:04.721Z,2.40
2023-12-29T11:13:33.610Z,2.00
2023-12-29T11:16:01.209Z,1.80
2023-12-29T11:18:29.574Z,1.70
2023-12-29T11:20:59.310Z,1.80
2023-12-29T11:23:26.840Z,1.60
2023-12-29T11:25:54.313Z,1.40
2023-12-29T11:28:23.077Z,1.30
2023-12-29T11:30:50.567Z,1.70
2023-12-29T11:33:18.075Z,1.70
2023-12-29T11:35:46.892Z,1.70
2023-12-29T11:38:14.237Z,1.70
2023-12-29T11:40:43.576Z,1.80
2023-12-29T11:43:12.630Z,1.60
2023-12-29T11:45:40.593Z,1.60
2023-12-29T11:48:08.249Z,1.80
2023-12-29T11:50:37.152Z,1.60
2023-12-29T11:53:04.829Z,1.50
2023-12-29T11:55:32.652Z,1.90
2023-12-29T11:58:01.547Z,1.80
2023-12-29T12:00:29.043Z,1.50
2023-12-29T12:02:56.542Z,2.00
2023-12-29T12:05:25.312Z,1.70
2023-12-29T12:07:53.128Z,1.90
2023-12-29T12:10:20.706Z,1.60
2023-12-29T12:12:49.692Z,2.30
2023-12-29T12:15:17.206Z,1.80
2023-12-29T12:17:44.763Z,1.90
2023-12-29T12:20:13.676Z,1.90
2023-12-29T12:22:41.102Z,2.00
2023-12-29T12:25:08.672Z,2.60
2023-12-29T12:27:37.860Z,2.30
2023-12-29T12:30:05.347Z,1.70
2023-12-29T12:32:32.830Z,2.00
2023-12-29T12:35:01.818Z,2.50
2023-12-29T12:37:29.514Z,2.20
2023-12-29T12:39:56.999Z,1.90
2023-12-29T12:42:26.732Z,1.90
2023-12-29T12:44:54.357Z,1.60
2023-12-29T12:47:24.520Z,1.80
2023-12-29T12:49:52.193Z,1.90
2023-12-29T12:52:19.632Z,1.70
2023-12-29T12:54:48.446Z,2.00
2023-12-29T12:57:16.166Z,2.30
2023-12-29T12:59:43.663Z,2.30
2023-12-29T13:02:12.997Z,2.10
2023-12-29T13:04:41.222Z,2.00
2023-12-29T13:07:11.000Z,2.00
2023-12-29T13:09:38.485Z,2.20
2023-12-29T13:12:06.004Z,2.20
2023-12-29T13:14:35.100Z,2.40
2023-12-29T13:17:02.581Z,2.20
2023-12-29T13:19:30.168Z,3.80
2023-12-29T13:21:59.069Z,4.90
2023-12-29T13:24:26.839Z,6.40
2023-12-29T13:26:54.495Z,4.50
2023-12-29T13:29:23.221Z,4.10
2023-12-29T13:31:50.919Z,3.60
2023-12-29T13:34:18.635Z,2.70
2023-12-29T13:36:47.798Z,2.70
2023-12-29T13:39:15.280Z,2.30
2023-12-29T13:41:42.730Z,3.30
2023-12-29T13:44:11.470Z,3.00
2023-12-29T13:46:39.041Z,2.50
2023-12-29T13:49:06.847Z,2.00
2023-12-29T13:51:35.611Z,1.90
2023-12-29T13:54:03.035Z,1.80
2023-12-29T13:56:30.889Z,1.70
2023-12-29T13:58:59.648Z,2.20
2023-12-29T14:01:27.220Z,1.70
2023-12-29T14:03:54.725Z,2.00
2023-12-29T14:06:23.726Z,1.80
2023-12-29T14:08:51.414Z,1.70
2023-12-29T14:11:18.904Z,1.80
2023-12-29T14:13:47.619Z,2.30
2023-12-29T14:16:16.861Z,2.40
2023-12-29T14:18:46.776Z,3.00
2023-12-29T14:21:14.424Z,7.30
2023-12-29T14:23:44.147Z,2.30
2023-12-29T14:26:12.410Z,2.20
2023-12-29T14:28:42.100Z,4.90
2023-12-29T14:31:09.538Z,2.90
2023-12-29T14:33:36.984Z,3.20
2023-12-29T14:36:05.710Z,5.00
2023-12-29T14:38:33.238Z,4.60
2023-12-29T14:41:01.676Z,16.80
2023-12-29T14:43:30.651Z,14.30
2023-12-29T14:45:58.198Z,6.90
2023-12-29T14:48:25.847Z,4.10
2023-12-29T14:50:54.685Z,3.20
2023-12-29T14:53:22.170Z,3.30
2023-12-29T14:55:49.665Z,4.40
2023-12-29T14:58:18.772Z,8.10
2023-12-29T15:00:46.410Z,12.20
2023-12-29T15:03:13.949Z,15.70
2023-12-29T15:05:42.788Z,12.80
2023-12-29T15:08:10.377Z,12.00
2023-12-29T15:10:37.843Z,10.60
2023-12-29T15:13:06.570Z,48.20
2023-12-29T15:15:34.084Z,8.90
2023-12-29T15:18:01.818Z,7.70
2023-12-29T15:20:31.140Z,3.80
2023-12-29T15:22:58.680Z,3.30
2023-12-29T15:25:26.177Z,3.00
2023-12-29T15:27:54.941Z,3.00
2023-12-29T15:30:22.455Z,3.40
2023-12-29T15:32:49.976Z,3.40
2023-12-29T15:35:18.750Z,5.30
2023-12-29T15:37:46.266Z,4.40
2023-12-29T15:40:13.793Z,5.00
2023-12-29T15:42:42.527Z,4.80
2023-12-29T15:45:10.012Z,5.60
2023-12-29T15:47:37.516Z,5.70
2023-12-29T15:50:06.261Z,5.60
2023-12-29T15:52:33.753Z,5.40
2023-12-29T15:55:01.329Z,4.90
2023-12-29T15:57:30.166Z,5.40
2023-12-29T15:59:57.930Z,5.90
2023-12-29T16:02:25.255Z,5.10
2023-12-29T16:04:54.025Z,5.40
2023-12-29T16:07:21.727Z,5.40
2023-12-29T16:09:49.341Z,5.60
2023-12-29T16:12:17.916Z,5.90
2023-12-29T16:14:45.337Z,5.90
2023-12-29T16:17:12.770Z,6.10
2023-12-29T16:19:41.516Z,7.50
2023-12-29T16:22:09.052Z,10.40
2023-12-29T16:24:36.386Z,8.20
2023-12-29T16:27:05.448Z,9.20
2023-12-29T16:29:32.869Z,9.00
2023-12-29T16:32:00.293Z,8.30
2023-12-29T16:34:29.108Z,10.30
2023-12-29T16:36:56.636Z,11.10
2023-12-29T16:39:24.092Z,10.60
2023-12-29T16:41:52.917Z,11.90
2023-12-29T16:44:20.440Z,11.00
2023-12-29T16:46:48.243Z,10.70
2023-12-29T16:49:17.131Z,11.90
2023-12-29T16:51:45.501Z,12.50
2023-12-29T16:54:15.420Z,12.70
2023-12-29T16:56:42.910Z,12.80
2023-12-29T16:59:10.350Z,12.70
2023-12-29T17:01:39.195Z,12.10
2023-12-29T17:04:06.860Z,12.50
2023-12-29T17:06:34.367Z,11.20
2023-12-29T17:09:03.441Z,10.90
2023-12-29T17:11:30.871Z,11.10
2023-12-29T17:13:58.289Z,13.60
2023-12-29T17:16:27.060Z,12.90
2023-12-29T17:18:54.720Z,11.80
2023-12-29T17:21:22.269Z,11.90
2023-12-29T17:23:51.000Z,11.70
2023-12-29T17:26:18.562Z,10.80
2023-12-29T17:28:46.318Z,9.80
2023-12-29T17:31:15.160Z,8.70
2023-12-29T17:33:42.813Z,8.50
2023-12-29T17:36:10.367Z,6.80
2023-12-29T17:38:39.081Z,6.90
2023-12-29T17:41:06.637Z,7.80
2023-12-29T17:43:34.254Z,7.50
2023-12-29T17:46:03.150Z,6.70
2023-12-29T17:48:31.071Z,6.10
2023-12-29T17:50:58.580Z,5.30
2023-12-29T17:53:27.359Z,5.60
2023-12-29T17:55:54.741Z,5.20
2023-12-29T17:58:22.347Z,5.40
2023-12-29T18:00:51.266Z,7.30
2023-12-29T18:03:18.904Z,4.80
2023-12-29T18:05:46.460Z,5.00
2023-12-29T18:08:15.359Z,4.10
2023-12-29T18:10:43.270Z,5.40
2023-12-29T18:13:10.804Z,6.30
2023-12-29T18:15:39.566Z,18.10
2023-12-29T18:18:07.097Z,32.60
2023-12-29T18:20:34.875Z,45.80
2023-12-29T18:23:03.764Z,47.50
2023-12-29T18:25:31.588Z,21.70
2023-12-29T18:27:59.221Z,12.80
2023-12-29T18:30:28.435Z,14.60
2023-12-29T18:32:55.955Z,12.10
2023-12-29T18:35:23.498Z,16.30
2023-12-29T18:37:52.213Z,15.90
2023-12-29T18:40:19.726Z,10.90
2023-12-29T18:42:48.271Z,7.40
2023-12-29T18:45:17.268Z,7.60
2023-12-29T18:47:44.968Z,9.70
2023-12-29T18:50:13.196Z,8.20
2023-12-29T18:52:42.165Z,7.90
2023-12-29T18:55:10.271Z,9.30
2023-12-29T18:57:37.857Z,9.90
2023-12-29T19:00:06.563Z,12.70
2023-12-29T19:02:34.054Z,12.60
2023-12-29T19:05:01.655Z,12.00
2023-12-29T19:07:30.536Z,9.50
2023-12-29T19:09:58.165Z,11.10
2023-12-29T19:12:25.592Z,11.70
2023-12-29T19:14:54.657Z,11.40
2023-12-29T19:17:22.195Z,11.80
2023-12-29T19:19:49.697Z,12.90
2023-12-29T19:22:18.417Z,12.30
2023-12-29T19:24:46.104Z,14.50
2023-12-29T19:27:14.016Z,11.10
2023-12-29T19:29:42.730Z,12.90
2023-12-29T19:32:10.149Z,11.70
2023-12-29T19:34:37.945Z,19.30
2023-12-29T19:37:07.226Z,20.40
2023-12-29T19:39:34.721Z,17.00
2023-12-29T19:42:02.227Z,14.00
2023-12-29T19:44:31.061Z,13.30
2023-12-29T19:46:58.672Z,13.80
2023-12-29T19:49:26.146Z,14.20
2023-12-29T19:51:54.957Z,8.90
2023-12-29T19:54:22.424Z,9.40
2023-12-29T19:56:50.287Z,8.90
2023-12-29T19:59:19.024Z,8.40
2023-12-29T20:01:47.835Z,9.70
2023-12-29T20:04:18.012Z,9.80
2023-12-29T20:06:45.533Z,9.40
2023-12-29T20:09:12.975Z,8.70
2023-12-29T20:11:41.724Z,9.70
2023-12-29T20:14:09.178Z,10.50
2023-12-29T20:16:36.677Z,9.50
2023-12-29T20:19:05.877Z,25.00
2023-12-29T20:21:33.501Z,18.90
2023-12-29T20:24:01.033Z,27.10
2023-12-29T20:26:29.759Z,33.70
2023-12-29T20:28:57.262Z,23.10
2023-12-29T20:31:24.714Z,21.60
2023-12-29T20:33:53.670Z,20.90
2023-12-29T20:36:21.448Z,10.90
2023-12-29T20:38:48.909Z,12.70
2023-12-29T20:41:17.610Z,16.80
2023-12-29T20:43:45.029Z,13.00
2023-12-29T20:46:12.662Z,16.10
2023-12-29T20:48:41.545Z,10.10
2023-12-29T20:51:14.088Z,8.80
2023-12-29T20:53:45.801Z,6.90
2023-12-29T20:56:13.246Z,6.40
2023-12-29T20:58:41.011Z,10.00
2023-12-29T21:01:09.932Z,14.90
2023-12-29T21:03:37.639Z,21.80
2023-12-29T21:06:05.272Z,19.10
2023-12-29T21:08:34.037Z,14.50
2023-12-29T21:11:01.509Z,13.60
2023-12-29T21:13:29.299Z,14.40
2023-12-29T21:15:58.161Z,14.20
2023-12-29T21:18:25.745Z,13.00
2023-12-29T21:20:53.702Z,10.10
2023-12-29T21:23:22.539Z,8.00
2023-12-29T21:25:50.276Z,7.30
2023-12-29T21:28:17.833Z,6.50
2023-12-29T21:30:46.686Z,7.70
2023-12-29T21:33:14.684Z,8.20
2023-12-29T21:35:42.308Z,6.30
2023-12-29T21:38:10.998Z,5.60
2023-12-29T21:40:38.841Z,4.90
2023-12-29T21:43:06.610Z,5.00
2023-12-29T21:45:35.490Z,5.30
2023-12-29T21:48:03.032Z,5.20
2023-12-29T21:50:30.633Z,5.00
2023-12-29T21:52:59.924Z,4.60
2023-12-29T21:55:27.886Z,6.20
2023-12-29T21:57:57.696Z,6.40
2023-12-29T22:00:25.434Z,6.30
2023-12-29T22:02:52.910Z,5.10
2023-12-29T22:05:21.764Z,4.80
2023-12-29T22:07:49.210Z,5.20
2023-12-29T22:10:16.782Z,5.10
2023-12-29T22:12:45.667Z,5.20
2023-12-29T22:15:13.129Z,5.30
2023-12-29T22:17:40.901Z,6.00
2023-12-29T22:20:09.652Z,5.40
2023-12-29T22:22:37.318Z,5.30
2023-12-29T22:25:04.921Z,4.80
2023-12-29T22:27:33.693Z,5.30
2023-12-29T22:30:01.198Z,5.20
2023-12-29T22:32:28.656Z,5.90
2023-12-29T22:34:57.616Z,5.60
2023-12-29T22:37:25.249Z,5.40
2023-12-29T22:39:52.821Z,6.10
2023-12-29T22:42:21.876Z,8.80
2023-12-29T22:44:49.378Z,6.50
2023-12-29T22:47:16.835Z,6.10
2023-12-29T22:49:45.644Z,6.00
2023-12-29T22:52:13.102Z,5.00
2023-12-29T22:54:40.625Z,5.30
2023-12-29T22:57:09.324Z,5.50
2023-12-29T22:59:37.496Z,5.50
2023-12-29T23:02:07.211Z,5.40
2023-12-29T23:04:34.722Z,5.70
2023-12-29T23:07:02.557Z,5.50
2023-12-29T23:09:31.268Z,5.50
2023-12-29T23:11:58.664Z,4.60
2023-12-29T23:14:26.118Z,5.30
2023-12-29T23:16:54.862Z,5.30
2023-12-29T23:19:22.363Z,6.00
2023-12-29T23:21:49.872Z,5.10
2023-12-29T23:24:18.598Z,4.60
2023-12-29T23:26:46.477Z,5.50
2023-12-29T23:29:13.955Z,5.20
2023-12-29T23:31:42.733Z,5.00
2023-12-29T23:34:10.344Z,5.10
2023-12-29T23:36:37.970Z,4.70
2023-12-29T23:39:06.850Z,5.60
2023-12-29T23:41:34.298Z,5.10
2023-12-29T23:44:01.766Z,5.40
2023-12-29T23:46:30.971Z,5.70
2023-12-29T23:48:58.472Z,5.80
2023-12-29T23:51:26.016Z,8.00
2023-12-29T23:53:54.826Z,7.70
2023-12-29T23:56:22.276Z,6.20
2023-12-29T23:58:49.698Z,5.20
